sensor_id;sensor_type;location;lat;lon;timestamp;temperature;humidity
68235;DHT22;55052;52.056;5.296;2022-12-07T00:01:13;5.10;90.40
68235;DHT22;55052;52.056;5.296;2022-12-07T00:03:42;5.10;90.40
68235;DHT22;55052;52.056;5.296;2022-12-07T00:06:11;5.10;90.50
68235;DHT22;55052;52.056;5.296;2022-12-07T00:08:38;5.10;90.50
68235;DHT22;55052;52.056;5.296;2022-12-07T00:11:10;5.00;90.50
68235;DHT22;55052;52.056;5.296;2022-12-07T00:13:38;5.00;90.50
68235;DHT22;55052;52.056;5.296;2022-12-07T00:18:34;5.00;90.60
68235;DHT22;55052;52.056;5.296;2022-12-07T00:21:02;5.00;90.60
68235;DHT22;55052;52.056;5.296;2022-12-07T00:23:30;5.00;90.60
68235;DHT22;55052;52.056;5.296;2022-12-07T00:26:03;5.00;90.50
68235;DHT22;55052;52.056;5.296;2022-12-07T00:28:30;5.00;90.50
68235;DHT22;55052;52.056;5.296;2022-12-07T00:31:09;5.00;90.50
68235;DHT22;55052;52.056;5.296;2022-12-07T00:33:37;4.90;90.40
68235;DHT22;55052;52.056;5.296;2022-12-07T00:36:10;4.90;90.30
68235;DHT22;55052;52.056;5.296;2022-12-07T00:38:39;4.90;90.30
68235;DHT22;55052;52.056;5.296;2022-12-07T00:41:17;4.80;90.20
68235;DHT22;55052;52.056;5.296;2022-12-07T00:43:45;4.80;90.20
68235;DHT22;55052;52.056;5.296;2022-12-07T00:46:12;4.70;90.20
68235;DHT22;55052;52.056;5.296;2022-12-07T00:48:40;4.70;90.10
68235;DHT22;55052;52.056;5.296;2022-12-07T00:51:07;4.60;90.10
68235;DHT22;55052;52.056;5.296;2022-12-07T00:53:35;4.50;90.40
68235;DHT22;55052;52.056;5.296;2022-12-07T00:56:20;4.50;90.00
68235;DHT22;55052;52.056;5.296;2022-12-07T00:58:55;4.50;90.00
68235;DHT22;55052;52.056;5.296;2022-12-07T01:01:23;4.40;90.00
68235;DHT22;55052;52.056;5.296;2022-12-07T01:03:50;4.40;90.00
68235;DHT22;55052;52.056;5.296;2022-12-07T01:06:18;4.30;90.00
68235;DHT22;55052;52.056;5.296;2022-12-07T01:08:45;4.20;89.90
68235;DHT22;55052;52.056;5.296;2022-12-07T01:11:18;4.20;89.90
68235;DHT22;55052;52.056;5.296;2022-12-07T01:13:46;4.20;89.90
68235;DHT22;55052;52.056;5.296;2022-12-07T01:16:14;4.10;89.90
68235;DHT22;55052;52.056;5.296;2022-12-07T01:18:42;4.10;89.80
68235;DHT22;55052;52.056;5.296;2022-12-07T01:21:14;4.10;89.80
68235;DHT22;55052;52.056;5.296;2022-12-07T01:23:42;4.00;89.80
68235;DHT22;55052;52.056;5.296;2022-12-07T01:26:13;4.00;89.80
68235;DHT22;55052;52.056;5.296;2022-12-07T01:28:41;3.90;89.90
68235;DHT22;55052;52.056;5.296;2022-12-07T01:31:13;3.90;89.90
68235;DHT22;55052;52.056;5.296;2022-12-07T01:33:46;3.90;89.90
68235;DHT22;55052;52.056;5.296;2022-12-07T01:36:19;3.80;89.80
68235;DHT22;55052;52.056;5.296;2022-12-07T01:38:47;3.80;89.80
68235;DHT22;55052;52.056;5.296;2022-12-07T01:41:15;3.70;89.70
68235;DHT22;55052;52.056;5.296;2022-12-07T01:44:08;3.70;89.80
68235;DHT22;55052;52.056;5.296;2022-12-07T01:46:35;3.70;89.80
68235;DHT22;55052;52.056;5.296;2022-12-07T01:49:04;3.60;89.80
68235;DHT22;55052;52.056;5.296;2022-12-07T01:51:34;3.60;89.80
68235;DHT22;55052;52.056;5.296;2022-12-07T01:54:02;3.60;89.80
68235;DHT22;55052;52.056;5.296;2022-12-07T01:56:29;3.60;89.90
68235;DHT22;55052;52.056;5.296;2022-12-07T01:58:58;3.50;89.80
68235;DHT22;55052;52.056;5.296;2022-12-07T02:01:26;3.50;89.70
68235;DHT22;55052;52.056;5.296;2022-12-07T02:03:53;3.40;89.70
68235;DHT22;55052;52.056;5.296;2022-12-07T02:06:22;3.40;90.20
68235;DHT22;55052;52.056;5.296;2022-12-07T02:08:50;3.40;89.60
68235;DHT22;55052;52.056;5.296;2022-12-07T02:11:18;3.30;89.60
68235;DHT22;55052;52.056;5.296;2022-12-07T02:13:46;3.30;89.60
68235;DHT22;55052;52.056;5.296;2022-12-07T02:22:06;3.20;89.50
68235;DHT22;55052;52.056;5.296;2022-12-07T02:24:54;3.20;89.50
68235;DHT22;55052;52.056;5.296;2022-12-07T02:27:36;3.10;89.50
68235;DHT22;55052;52.056;5.296;2022-12-07T02:30:05;3.10;89.70
68235;DHT22;55052;52.056;5.296;2022-12-07T02:32:57;3.10;89.80
68235;DHT22;55052;52.056;5.296;2022-12-07T02:35:36;3.10;90.10
68235;DHT22;55052;52.056;5.296;2022-12-07T02:38:14;3.00;89.90
68235;DHT22;55052;52.056;5.296;2022-12-07T02:43:26;3.00;90.00
68235;DHT22;55052;52.056;5.296;2022-12-07T02:46:03;3.00;90.10
68235;DHT22;55052;52.056;5.296;2022-12-07T02:48:32;3.00;90.10
68235;DHT22;55052;52.056;5.296;2022-12-07T02:51:00;3.00;90.20
68235;DHT22;55052;52.056;5.296;2022-12-07T02:53:41;3.00;90.20
68235;DHT22;55052;52.056;5.296;2022-12-07T03:02:38;3.10;90.30
68235;DHT22;55052;52.056;5.296;2022-12-07T03:13:32;3.00;90.20
68235;DHT22;55052;52.056;5.296;2022-12-07T03:18:59;3.00;90.20
68235;DHT22;55052;52.056;5.296;2022-12-07T03:21:34;3.00;90.20
68235;DHT22;55052;52.056;5.296;2022-12-07T03:24:06;3.00;90.30
68235;DHT22;55052;52.056;5.296;2022-12-07T03:26:38;3.10;90.40
68235;DHT22;55052;52.056;5.296;2022-12-07T03:29:13;3.10;90.50
68235;DHT22;55052;52.056;5.296;2022-12-07T03:31:43;3.10;90.50
68235;DHT22;55052;52.056;5.296;2022-12-07T03:34:20;3.10;90.50
68235;DHT22;55052;52.056;5.296;2022-12-07T03:37:00;3.20;90.60
68235;DHT22;55052;52.056;5.296;2022-12-07T03:39:50;3.10;90.50
68235;DHT22;55052;52.056;5.296;2022-12-07T03:42:18;3.20;90.50
68235;DHT22;55052;52.056;5.296;2022-12-07T03:44:45;3.20;90.60
68235;DHT22;55052;52.056;5.296;2022-12-07T03:47:37;3.20;90.50
68235;DHT22;55052;52.056;5.296;2022-12-07T03:50:17;3.20;90.50
68235;DHT22;55052;52.056;5.296;2022-12-07T03:53:00;3.20;90.50
68235;DHT22;55052;52.056;5.296;2022-12-07T03:55:34;3.20;90.40
68235;DHT22;55052;52.056;5.296;2022-12-07T03:58:12;3.20;90.40
68235;DHT22;55052;52.056;5.296;2022-12-07T04:00:41;3.20;90.40
68235;DHT22;55052;52.056;5.296;2022-12-07T04:03:08;3.20;90.40
68235;DHT22;55052;52.056;5.296;2022-12-07T04:05:35;3.10;90.40
68235;DHT22;55052;52.056;5.296;2022-12-07T04:08:03;3.20;90.50
68235;DHT22;55052;52.056;5.296;2022-12-07T04:10:29;3.20;90.50
68235;DHT22;55052;52.056;5.296;2022-12-07T04:12:56;3.20;90.40
68235;DHT22;55052;52.056;5.296;2022-12-07T04:15:23;3.20;90.40
68235;DHT22;55052;52.056;5.296;2022-12-07T04:17:49;3.20;90.40
68235;DHT22;55052;52.056;5.296;2022-12-07T04:20:17;3.20;90.40
68235;DHT22;55052;52.056;5.296;2022-12-07T04:22:44;3.20;90.40
68235;DHT22;55052;52.056;5.296;2022-12-07T04:25:10;3.20;90.40
68235;DHT22;55052;52.056;5.296;2022-12-07T04:27:37;3.10;90.40
68235;DHT22;55052;52.056;5.296;2022-12-07T04:30:04;3.10;90.40
68235;DHT22;55052;52.056;5.296;2022-12-07T04:32:31;3.10;90.40
68235;DHT22;55052;52.056;5.296;2022-12-07T04:34:58;3.10;90.30
68235;DHT22;55052;52.056;5.296;2022-12-07T04:37:25;3.10;90.30
68235;DHT22;55052;52.056;5.296;2022-12-07T04:39:52;3.10;90.30
68235;DHT22;55052;52.056;5.296;2022-12-07T04:42:19;3.10;90.30
68235;DHT22;55052;52.056;5.296;2022-12-07T04:44:45;3.00;90.30
68235;DHT22;55052;52.056;5.296;2022-12-07T04:47:12;3.00;90.70
68235;DHT22;55052;52.056;5.296;2022-12-07T04:49:39;3.00;90.30
68235;DHT22;55052;52.056;5.296;2022-12-07T04:52:05;3.00;90.30
68235;DHT22;55052;52.056;5.296;2022-12-07T04:54:32;3.00;90.40
68235;DHT22;55052;52.056;5.296;2022-12-07T04:56:59;3.00;90.40
68235;DHT22;55052;52.056;5.296;2022-12-07T04:59:26;3.00;90.50
68235;DHT22;55052;52.056;5.296;2022-12-07T05:01:53;3.00;90.50
68235;DHT22;55052;52.056;5.296;2022-12-07T05:04:19;3.00;90.50
68235;DHT22;55052;52.056;5.296;2022-12-07T05:06:46;3.00;90.50
68235;DHT22;55052;52.056;5.296;2022-12-07T05:09:13;3.00;90.50
68235;DHT22;55052;52.056;5.296;2022-12-07T05:11:40;3.00;90.60
68235;DHT22;55052;52.056;5.296;2022-12-07T05:14:13;3.00;90.60
68235;DHT22;55052;52.056;5.296;2022-12-07T05:16:41;3.00;90.60
68235;DHT22;55052;52.056;5.296;2022-12-07T05:19:09;3.00;90.50
68235;DHT22;55052;52.056;5.296;2022-12-07T05:21:36;3.00;90.60
68235;DHT22;55052;52.056;5.296;2022-12-07T05:24:03;3.00;90.50
68235;DHT22;55052;52.056;5.296;2022-12-07T05:26:31;3.00;90.60
68235;DHT22;55052;52.056;5.296;2022-12-07T05:28:58;3.00;90.60
68235;DHT22;55052;52.056;5.296;2022-12-07T05:31:26;3.00;90.50
68235;DHT22;55052;52.056;5.296;2022-12-07T05:33:53;3.00;90.60
68235;DHT22;55052;52.056;5.296;2022-12-07T05:36:20;3.00;90.60
68235;DHT22;55052;52.056;5.296;2022-12-07T05:38:47;3.00;90.60
68235;DHT22;55052;52.056;5.296;2022-12-07T05:41:15;3.10;90.60
68235;DHT22;55052;52.056;5.296;2022-12-07T05:44:01;3.00;90.60
68235;DHT22;55052;52.056;5.296;2022-12-07T05:46:28;3.10;90.60
68235;DHT22;55052;52.056;5.296;2022-12-07T05:48:55;3.00;90.60
68235;DHT22;55052;52.056;5.296;2022-12-07T05:51:22;3.10;90.80
68235;DHT22;55052;52.056;5.296;2022-12-07T05:53:48;3.00;90.50
68235;DHT22;55052;52.056;5.296;2022-12-07T05:56:15;3.00;90.50
68235;DHT22;55052;52.056;5.296;2022-12-07T05:58:42;3.00;90.50
68235;DHT22;55052;52.056;5.296;2022-12-07T06:01:28;3.00;90.50
68235;DHT22;55052;52.056;5.296;2022-12-07T06:03:54;3.00;90.50
68235;DHT22;55052;52.056;5.296;2022-12-07T06:06:21;3.00;90.50
68235;DHT22;55052;52.056;5.296;2022-12-07T06:08:48;3.00;90.50
68235;DHT22;55052;52.056;5.296;2022-12-07T06:11:15;3.00;90.50
68235;DHT22;55052;52.056;5.296;2022-12-07T06:14:00;3.00;90.50
68235;DHT22;55052;52.056;5.296;2022-12-07T06:16:27;3.00;90.50
68235;DHT22;55052;52.056;5.296;2022-12-07T06:18:54;3.00;90.50
68235;DHT22;55052;52.056;5.296;2022-12-07T06:21:20;3.00;90.50
68235;DHT22;55052;52.056;5.296;2022-12-07T06:23:47;2.90;90.40
68235;DHT22;55052;52.056;5.296;2022-12-07T06:26:14;2.90;90.50
68235;DHT22;55052;52.056;5.296;2022-12-07T06:28:41;2.90;90.40
68235;DHT22;55052;52.056;5.296;2022-12-07T06:31:08;2.90;90.80
68235;DHT22;55052;52.056;5.296;2022-12-07T06:33:40;2.90;90.40
68235;DHT22;55052;52.056;5.296;2022-12-07T06:36:09;2.90;90.40
68235;DHT22;55052;52.056;5.296;2022-12-07T06:38:36;2.90;90.50
68235;DHT22;55052;52.056;5.296;2022-12-07T06:41:03;2.90;90.40
68235;DHT22;55052;52.056;5.296;2022-12-07T06:43:30;2.90;90.40
68235;DHT22;55052;52.056;5.296;2022-12-07T06:45:56;2.80;90.40
68235;DHT22;55052;52.056;5.296;2022-12-07T06:48:23;2.80;90.40
68235;DHT22;55052;52.056;5.296;2022-12-07T06:50:50;2.80;90.40
68235;DHT22;55052;52.056;5.296;2022-12-07T06:53:21;2.80;90.40
68235;DHT22;55052;52.056;5.296;2022-12-07T06:55:48;2.80;90.40
68235;DHT22;55052;52.056;5.296;2022-12-07T06:58:15;2.80;90.40
68235;DHT22;55052;52.056;5.296;2022-12-07T07:00:43;2.70;90.30
68235;DHT22;55052;52.056;5.296;2022-12-07T07:03:10;2.70;90.30
68235;DHT22;55052;52.056;5.296;2022-12-07T07:05:37;2.70;90.40
68235;DHT22;55052;52.056;5.296;2022-12-07T07:08:04;2.70;90.40
68235;DHT22;55052;52.056;5.296;2022-12-07T07:10:47;2.70;90.40
68235;DHT22;55052;52.056;5.296;2022-12-07T07:13:14;2.70;90.40
68235;DHT22;55052;52.056;5.296;2022-12-07T07:15:41;2.70;90.40
68235;DHT22;55052;52.056;5.296;2022-12-07T07:18:08;2.70;90.50
68235;DHT22;55052;52.056;5.296;2022-12-07T07:20:35;2.70;90.50
68235;DHT22;55052;52.056;5.296;2022-12-07T07:23:02;2.70;90.50
68235;DHT22;55052;52.056;5.296;2022-12-07T07:25:29;2.70;90.50
68235;DHT22;55052;52.056;5.296;2022-12-07T07:27:55;2.70;90.50
68235;DHT22;55052;52.056;5.296;2022-12-07T07:30:22;2.70;90.50
68235;DHT22;55052;52.056;5.296;2022-12-07T07:32:49;2.70;90.50
68235;DHT22;55052;52.056;5.296;2022-12-07T07:35:16;2.70;90.50
68235;DHT22;55052;52.056;5.296;2022-12-07T07:37:43;2.70;90.50
68235;DHT22;55052;52.056;5.296;2022-12-07T07:40:10;2.70;90.50
68235;DHT22;55052;52.056;5.296;2022-12-07T07:42:37;2.60;90.40
68235;DHT22;55052;52.056;5.296;2022-12-07T07:45:04;2.60;90.40
68235;DHT22;55052;52.056;5.296;2022-12-07T07:47:31;2.60;90.40
68235;DHT22;55052;52.056;5.296;2022-12-07T07:49:58;2.60;90.40
68235;DHT22;55052;52.056;5.296;2022-12-07T07:52:25;2.60;90.40
68235;DHT22;55052;52.056;5.296;2022-12-07T07:54:51;2.60;90.70
68235;DHT22;55052;52.056;5.296;2022-12-07T07:57:18;2.50;90.30
68235;DHT22;55052;52.056;5.296;2022-12-07T07:59:45;2.50;90.30
68235;DHT22;55052;52.056;5.296;2022-12-07T08:02:17;2.50;90.30
68235;DHT22;55052;52.056;5.296;2022-12-07T08:04:44;2.50;90.30
68235;DHT22;55052;52.056;5.296;2022-12-07T08:07:12;2.50;90.30
68235;DHT22;55052;52.056;5.296;2022-12-07T08:09:39;2.50;90.30
68235;DHT22;55052;52.056;5.296;2022-12-07T08:12:06;2.50;90.30
68235;DHT22;55052;52.056;5.296;2022-12-07T08:14:33;2.40;90.30
68235;DHT22;55052;52.056;5.296;2022-12-07T08:17:00;2.40;90.30
68235;DHT22;55052;52.056;5.296;2022-12-07T08:19:27;2.40;90.30
68235;DHT22;55052;52.056;5.296;2022-12-07T08:21:55;2.40;90.30
68235;DHT22;55052;52.056;5.296;2022-12-07T08:24:22;2.40;90.30
68235;DHT22;55052;52.056;5.296;2022-12-07T08:26:49;2.40;90.30
68235;DHT22;55052;52.056;5.296;2022-12-07T08:29:17;2.40;90.30
68235;DHT22;55052;52.056;5.296;2022-12-07T08:31:44;2.40;90.40
68235;DHT22;55052;52.056;5.296;2022-12-07T08:34:12;2.40;90.80
68235;DHT22;55052;52.056;5.296;2022-12-07T08:36:39;2.40;90.50
68235;DHT22;55052;52.056;5.296;2022-12-07T08:39:06;2.50;90.60
68235;DHT22;55052;52.056;5.296;2022-12-07T08:41:53;2.50;90.70
68235;DHT22;55052;52.056;5.296;2022-12-07T08:44:20;2.60;90.80
68235;DHT22;55052;52.056;5.296;2022-12-07T08:46:51;2.60;90.90
68235;DHT22;55052;52.056;5.296;2022-12-07T08:49:22;2.70;91.00
68235;DHT22;55052;52.056;5.296;2022-12-07T08:51:50;2.80;91.10
68235;DHT22;55052;52.056;5.296;2022-12-07T08:54:18;2.80;91.20
68235;DHT22;55052;52.056;5.296;2022-12-07T08:56:46;2.90;91.30
68235;DHT22;55052;52.056;5.296;2022-12-07T08:59:18;3.00;91.40
68235;DHT22;55052;52.056;5.296;2022-12-07T09:01:45;3.00;91.40
68235;DHT22;55052;52.056;5.296;2022-12-07T09:04:12;3.10;91.40
68235;DHT22;55052;52.056;5.296;2022-12-07T09:06:39;3.20;91.40
68235;DHT22;55052;52.056;5.296;2022-12-07T09:09:06;3.30;91.50
68235;DHT22;55052;52.056;5.296;2022-12-07T09:11:33;3.30;91.50
68235;DHT22;55052;52.056;5.296;2022-12-07T09:14:00;3.40;91.50
68235;DHT22;55052;52.056;5.296;2022-12-07T09:16:27;3.50;91.60
68235;DHT22;55052;52.056;5.296;2022-12-07T09:18:54;3.50;91.60
68235;DHT22;55052;52.056;5.296;2022-12-07T09:21:21;3.60;91.60
68235;DHT22;55052;52.056;5.296;2022-12-07T09:23:48;3.70;91.60
68235;DHT22;55052;52.056;5.296;2022-12-07T09:26:15;3.70;91.70
68235;DHT22;55052;52.056;5.296;2022-12-07T09:28:41;3.80;91.70
68235;DHT22;55052;52.056;5.296;2022-12-07T09:31:08;3.90;91.80
68235;DHT22;55052;52.056;5.296;2022-12-07T09:33:59;4.00;91.90
68235;DHT22;55052;52.056;5.296;2022-12-07T09:36:27;4.10;91.90
68235;DHT22;55052;52.056;5.296;2022-12-07T09:38:54;4.20;91.90
68235;DHT22;55052;52.056;5.296;2022-12-07T09:41:22;4.20;92.40
68235;DHT22;55052;52.056;5.296;2022-12-07T09:43:50;4.30;92.10
68235;DHT22;55052;52.056;5.296;2022-12-07T09:46:19;4.40;92.10
68235;DHT22;55052;52.056;5.296;2022-12-07T09:48:48;4.50;92.10
68235;DHT22;55052;52.056;5.296;2022-12-07T09:51:20;4.50;92.10
68235;DHT22;55052;52.056;5.296;2022-12-07T09:53:53;4.60;92.10
68235;DHT22;55052;52.056;5.296;2022-12-07T09:56:21;4.70;92.50
68235;DHT22;55052;52.056;5.296;2022-12-07T09:58:49;4.80;92.20
68235;DHT22;55052;52.056;5.296;2022-12-07T10:01:19;4.90;92.20
68235;DHT22;55052;52.056;5.296;2022-12-07T10:03:52;4.90;92.30
68235;DHT22;55052;52.056;5.296;2022-12-07T10:06:19;5.10;92.30
68235;DHT22;55052;52.056;5.296;2022-12-07T10:08:47;5.10;92.40
68235;DHT22;55052;52.056;5.296;2022-12-07T10:11:14;5.20;92.40
68235;DHT22;55052;52.056;5.296;2022-12-07T10:13:47;5.30;92.50
68235;DHT22;55052;52.056;5.296;2022-12-07T10:18:51;5.40;92.50
68235;DHT22;55052;52.056;5.296;2022-12-07T10:21:24;5.50;92.50
68235;DHT22;55052;52.056;5.296;2022-12-07T10:24:03;5.60;92.50
68235;DHT22;55052;52.056;5.296;2022-12-07T10:26:34;5.70;92.50
68235;DHT22;55052;52.056;5.296;2022-12-07T10:31:39;5.90;92.40
68235;DHT22;55052;52.056;5.296;2022-12-07T10:34:24;6.00;92.30
68235;DHT22;55052;52.056;5.296;2022-12-07T10:36:53;6.00;92.30
68235;DHT22;55052;52.056;5.296;2022-12-07T10:39:21;6.00;92.20
68235;DHT22;55052;52.056;5.296;2022-12-07T10:42:00;6.10;92.20
68235;DHT22;55052;52.056;5.296;2022-12-07T10:44:29;6.10;92.10
68235;DHT22;55052;52.056;5.296;2022-12-07T10:47:01;6.20;92.10
68235;DHT22;55052;52.056;5.296;2022-12-07T10:53:08;6.20;92.10
68235;DHT22;55052;52.056;5.296;2022-12-07T10:58:46;6.40;92.10
68235;DHT22;55052;52.056;5.296;2022-12-07T11:04:18;6.60;92.10
68235;DHT22;55052;52.056;5.296;2022-12-07T11:07:13;6.70;91.90
68235;DHT22;55052;52.056;5.296;2022-12-07T11:10:10;6.70;91.90
68235;DHT22;55052;52.056;5.296;2022-12-07T11:24:17;7.00;91.30
68235;DHT22;55052;52.056;5.296;2022-12-07T11:27:12;7.00;91.30
68235;DHT22;55052;52.056;5.296;2022-12-07T11:32:51;7.00;91.20
68235;DHT22;55052;52.056;5.296;2022-12-07T11:35:41;7.10;91.00
68235;DHT22;55052;52.056;5.296;2022-12-07T11:38:15;7.10;91.00
68235;DHT22;55052;52.056;5.296;2022-12-07T11:40:48;7.10;90.80
68235;DHT22;55052;52.056;5.296;2022-12-07T11:43:24;7.10;90.90
68235;DHT22;55052;52.056;5.296;2022-12-07T11:46:08;7.10;90.70
68235;DHT22;55052;52.056;5.296;2022-12-07T11:51:12;7.10;90.80
68235;DHT22;55052;52.056;5.296;2022-12-07T11:53:57;7.10;90.60
68235;DHT22;55052;52.056;5.296;2022-12-07T11:56:28;7.20;90.70
68235;DHT22;55052;52.056;5.296;2022-12-07T11:59:00;7.20;90.70
68235;DHT22;55052;52.056;5.296;2022-12-07T12:06:41;7.20;90.40
68235;DHT22;55052;52.056;5.296;2022-12-07T12:09:12;7.20;90.40
68235;DHT22;55052;52.056;5.296;2022-12-07T12:21:18;7.20;90.10
68235;DHT22;55052;52.056;5.296;2022-12-07T12:23:50;7.20;90.00
68235;DHT22;55052;52.056;5.296;2022-12-07T12:26:26;7.20;90.10
68235;DHT22;55052;52.056;5.296;2022-12-07T12:29:02;7.20;90.10
68235;DHT22;55052;52.056;5.296;2022-12-07T12:33:58;7.20;90.10
68235;DHT22;55052;52.056;5.296;2022-12-07T12:39:14;7.30;90.00
68235;DHT22;55052;52.056;5.296;2022-12-07T12:54:37;7.40;89.50
68235;DHT22;55052;52.056;5.296;2022-12-07T13:02:29;7.40;89.50
68235;DHT22;55052;52.056;5.296;2022-12-07T13:15:36;7.40;88.60
68235;DHT22;55052;52.056;5.296;2022-12-07T13:20:46;7.40;88.50
68235;DHT22;55052;52.056;5.296;2022-12-07T13:23:17;7.40;88.50
68235;DHT22;55052;52.056;5.296;2022-12-07T13:26:18;7.40;88.30
68235;DHT22;55052;52.056;5.296;2022-12-07T13:29:06;7.40;88.40
68235;DHT22;55052;52.056;5.296;2022-12-07T13:36:56;7.40;88.10
68235;DHT22;55052;52.056;5.296;2022-12-07T13:39:25;7.40;88.20
68235;DHT22;55052;52.056;5.296;2022-12-07T13:41:57;7.40;88.30
68235;DHT22;55052;52.056;5.296;2022-12-07T13:44:26;7.50;88.20
68235;DHT22;55052;52.056;5.296;2022-12-07T13:49:32;7.50;87.90
68235;DHT22;55052;52.056;5.296;2022-12-07T13:54:59;7.60;87.00
68235;DHT22;55052;52.056;5.296;2022-12-07T13:57:28;7.60;87.40
68235;DHT22;55052;52.056;5.296;2022-12-07T13:59:57;7.60;86.80
68235;DHT22;55052;52.056;5.296;2022-12-07T14:02:29;7.60;86.60
68235;DHT22;55052;52.056;5.296;2022-12-07T14:05:15;7.60;86.50
68235;DHT22;55052;52.056;5.296;2022-12-07T14:12:51;7.60;85.00
68235;DHT22;55052;52.056;5.296;2022-12-07T14:15:28;7.60;84.90
68235;DHT22;55052;52.056;5.296;2022-12-07T14:17:55;7.50;85.00
68235;DHT22;55052;52.056;5.296;2022-12-07T14:20:49;7.50;85.30
68235;DHT22;55052;52.056;5.296;2022-12-07T14:23:25;7.50;84.80
68235;DHT22;55052;52.056;5.296;2022-12-07T14:25:53;7.40;85.10
68235;DHT22;55052;52.056;5.296;2022-12-07T14:28:30;7.30;84.90
68235;DHT22;55052;52.056;5.296;2022-12-07T14:30:58;7.30;85.00
68235;DHT22;55052;52.056;5.296;2022-12-07T14:33:25;7.30;84.70
68235;DHT22;55052;52.056;5.296;2022-12-07T14:35:52;7.30;84.90
68235;DHT22;55052;52.056;5.296;2022-12-07T14:38:25;7.20;85.00
68235;DHT22;55052;52.056;5.296;2022-12-07T14:40:53;7.20;84.80
68235;DHT22;55052;52.056;5.296;2022-12-07T14:43:20;7.20;84.90
68235;DHT22;55052;52.056;5.296;2022-12-07T14:45:47;7.20;84.90
68235;DHT22;55052;52.056;5.296;2022-12-07T14:48:15;7.10;84.70
68235;DHT22;55052;52.056;5.296;2022-12-07T14:51:02;7.10;85.00
68235;DHT22;55052;52.056;5.296;2022-12-07T14:53:50;7.10;85.20
68235;DHT22;55052;52.056;5.296;2022-12-07T14:56:23;7.10;84.70
68235;DHT22;55052;52.056;5.296;2022-12-07T14:58:50;7.10;85.10
68235;DHT22;55052;52.056;5.296;2022-12-07T15:01:17;7.10;85.10
68235;DHT22;55052;52.056;5.296;2022-12-07T15:03:43;7.10;85.10
68235;DHT22;55052;52.056;5.296;2022-12-07T15:06:14;7.10;84.90
68235;DHT22;55052;52.056;5.296;2022-12-07T15:08:41;7.10;84.90
68235;DHT22;55052;52.056;5.296;2022-12-07T15:11:13;7.00;85.00
68235;DHT22;55052;52.056;5.296;2022-12-07T15:13:40;7.00;84.60
68235;DHT22;55052;52.056;5.296;2022-12-07T15:16:25;6.90;84.40
68235;DHT22;55052;52.056;5.296;2022-12-07T15:18:52;6.90;84.20
68235;DHT22;55052;52.056;5.296;2022-12-07T15:21:39;6.80;84.10
68235;DHT22;55052;52.056;5.296;2022-12-07T15:24:09;6.80;84.40
68235;DHT22;55052;52.056;5.296;2022-12-07T15:26:36;6.80;84.50
68235;DHT22;55052;52.056;5.296;2022-12-07T15:29:03;6.80;84.60
68235;DHT22;55052;52.056;5.296;2022-12-07T15:31:30;6.70;84.60
68235;DHT22;55052;52.056;5.296;2022-12-07T15:34:16;6.70;84.60
68235;DHT22;55052;52.056;5.296;2022-12-07T15:36:43;6.70;84.90
68235;DHT22;55052;52.056;5.296;2022-12-07T15:39:10;6.60;85.10
68235;DHT22;55052;52.056;5.296;2022-12-07T15:41:40;6.60;85.30
68235;DHT22;55052;52.056;5.296;2022-12-07T15:44:12;6.60;85.50
68235;DHT22;55052;52.056;5.296;2022-12-07T15:46:57;6.60;85.50
68235;DHT22;55052;52.056;5.296;2022-12-07T15:49:25;6.60;85.70
68235;DHT22;55052;52.056;5.296;2022-12-07T15:51:52;6.50;85.70
68235;DHT22;55052;52.056;5.296;2022-12-07T15:54:24;6.50;86.70
68235;DHT22;55052;52.056;5.296;2022-12-07T15:56:51;6.50;86.10
68235;DHT22;55052;52.056;5.296;2022-12-07T15:59:18;6.40;86.10
68235;DHT22;55052;52.056;5.296;2022-12-07T16:01:45;6.40;86.40
68235;DHT22;55052;52.056;5.296;2022-12-07T16:04:12;6.40;86.50
68235;DHT22;55052;52.056;5.296;2022-12-07T16:06:39;6.30;86.50
68235;DHT22;55052;52.056;5.296;2022-12-07T16:09:06;6.30;86.60
68235;DHT22;55052;52.056;5.296;2022-12-07T16:11:33;6.30;86.70
68235;DHT22;55052;52.056;5.296;2022-12-07T16:14:00;6.30;86.80
68235;DHT22;55052;52.056;5.296;2022-12-07T16:16:27;6.30;86.90
68235;DHT22;55052;52.056;5.296;2022-12-07T16:18:54;6.30;87.00
68235;DHT22;55052;52.056;5.296;2022-12-07T16:21:21;6.30;87.00
68235;DHT22;55052;52.056;5.296;2022-12-07T16:23:51;6.30;87.10
68235;DHT22;55052;52.056;5.296;2022-12-07T16:26:20;6.20;87.10
68235;DHT22;55052;52.056;5.296;2022-12-07T16:28:52;6.20;87.20
68235;DHT22;55052;52.056;5.296;2022-12-07T16:31:24;6.20;87.20
68235;DHT22;55052;52.056;5.296;2022-12-07T16:33:56;6.20;87.30
68235;DHT22;55052;52.056;5.296;2022-12-07T16:36:24;6.20;87.30
68235;DHT22;55052;52.056;5.296;2022-12-07T16:39:11;6.20;87.40
68235;DHT22;55052;52.056;5.296;2022-12-07T16:41:38;6.10;87.50
68235;DHT22;55052;52.056;5.296;2022-12-07T16:44:07;6.10;87.50
68235;DHT22;55052;52.056;5.296;2022-12-07T16:46:35;6.20;87.60
68235;DHT22;55052;52.056;5.296;2022-12-07T16:49:03;6.10;87.60
68235;DHT22;55052;52.056;5.296;2022-12-07T16:51:31;6.10;87.50
68235;DHT22;55052;52.056;5.296;2022-12-07T16:53:58;6.10;87.60
68235;DHT22;55052;52.056;5.296;2022-12-07T16:56:25;6.10;87.60
68235;DHT22;55052;52.056;5.296;2022-12-07T16:58:53;6.10;87.60
68235;DHT22;55052;52.056;5.296;2022-12-07T17:01:22;6.10;87.60
68235;DHT22;55052;52.056;5.296;2022-12-07T17:03:49;6.10;87.60
68235;DHT22;55052;52.056;5.296;2022-12-07T17:06:18;6.10;87.80
68235;DHT22;55052;52.056;5.296;2022-12-07T17:08:46;6.10;87.70
68235;DHT22;55052;52.056;5.296;2022-12-07T17:11:16;6.10;87.70
68235;DHT22;55052;52.056;5.296;2022-12-07T17:13:43;6.10;87.80
68235;DHT22;55052;52.056;5.296;2022-12-07T17:16:29;6.10;87.80
68235;DHT22;55052;52.056;5.296;2022-12-07T17:18:56;6.00;87.80
68235;DHT22;55052;52.056;5.296;2022-12-07T17:21:24;6.00;87.80
68235;DHT22;55052;52.056;5.296;2022-12-07T17:23:51;6.00;87.80
68235;DHT22;55052;52.056;5.296;2022-12-07T17:26:23;6.00;87.80
68235;DHT22;55052;52.056;5.296;2022-12-07T17:28:56;6.00;87.80
68235;DHT22;55052;52.056;5.296;2022-12-07T17:31:24;6.00;87.90
68235;DHT22;55052;52.056;5.296;2022-12-07T17:33:51;6.00;87.80
68235;DHT22;55052;52.056;5.296;2022-12-07T17:36:23;6.00;87.80
68235;DHT22;55052;52.056;5.296;2022-12-07T17:38:50;6.00;87.80
68235;DHT22;55052;52.056;5.296;2022-12-07T17:41:23;6.00;87.80
68235;DHT22;55052;52.056;5.296;2022-12-07T17:44:11;6.00;87.90
68235;DHT22;55052;52.056;5.296;2022-12-07T17:46:38;5.90;87.90
68235;DHT22;55052;52.056;5.296;2022-12-07T17:49:06;5.90;88.00
68235;DHT22;55052;52.056;5.296;2022-12-07T17:51:33;5.90;88.00
68235;DHT22;55052;52.056;5.296;2022-12-07T17:54:19;5.90;88.10
68235;DHT22;55052;52.056;5.296;2022-12-07T17:56:46;5.90;87.90
68235;DHT22;55052;52.056;5.296;2022-12-07T17:59:13;5.90;88.10
68235;DHT22;55052;52.056;5.296;2022-12-07T18:01:41;5.90;88.00
68235;DHT22;55052;52.056;5.296;2022-12-07T18:04:08;5.80;88.10
68235;DHT22;55052;52.056;5.296;2022-12-07T18:06:36;5.80;88.10
68235;DHT22;55052;52.056;5.296;2022-12-07T18:09:03;5.80;88.20
68235;DHT22;55052;52.056;5.296;2022-12-07T18:11:30;5.80;88.30
68235;DHT22;55052;52.056;5.296;2022-12-07T18:13:58;5.80;88.30